sensor_id;sensor_type;location;lat;lon;timestamp;pressure;altitude;pressure_sealevel;temperature;humidity
34983;BME280;21187;50.976;13.720;2022-10-18T00:04:07;99154.44;;;19.56;52.45
34983;BME280;21187;50.976;13.720;2022-10-18T00:09:09;99154.38;;;19.45;52.46
34983;BME280;21187;50.976;13.720;2022-10-18T00:14:11;99162.59;;;19.41;52.50
34983;BME280;21187;50.976;13.720;2022-10-18T00:19:13;99175.16;;;19.39;52.42
34983;BME280;21187;50.976;13.720;2022-10-18T00:24:15;99165.31;;;19.34;52.53
34983;BME280;21187;50.976;13.720;2022-10-18T00:29:17;99168.38;;;19.25;52.66
34983;BME280;21187;50.976;13.720;2022-10-18T00:34:19;99175.41;;;19.16;52.96
34983;BME280;21187;50.976;13.720;2022-10-18T00:39:21;99174.59;;;19.11;53.07
34983;BME280;21187;50.976;13.720;2022-10-18T00:49:41;99159.69;;;19.09;53.14
34983;BME280;21187;50.976;13.720;2022-10-18T00:54:45;99155.75;;;19.06;53.43
34983;BME280;21187;50.976;13.720;2022-10-18T00:59:47;99158.13;;;19.11;53.33
34983;BME280;21187;50.976;13.720;2022-10-18T01:04:49;99153.06;;;19.14;53.34
34983;BME280;21187;50.976;13.720;2022-10-18T01:15:30;99148.75;;;19.20;53.61
34983;BME280;21187;50.976;13.720;2022-10-18T01:31:45;99157.78;;;19.24;53.72
34983;BME280;21187;50.976;13.720;2022-10-18T01:36:53;99157.41;;;19.25;54.10
34983;BME280;21187;50.976;13.720;2022-10-18T01:41:57;99154.69;;;19.29;54.06
34983;BME280;21187;50.976;13.720;2022-10-18T01:47:02;99155.47;;;19.33;53.93
34983;BME280;21187;50.976;13.720;2022-10-18T01:52:07;99169.22;;;19.33;53.88
34983;BME280;21187;50.976;13.720;2022-10-18T02:13:20;99156.59;;;19.18;54.50
34983;BME280;21187;50.976;13.720;2022-10-18T02:18:32;99156.22;;;19.19;54.77
34983;BME280;21187;50.976;13.720;2022-10-18T02:23:37;99160.53;;;19.24;54.81
34983;BME280;21187;50.976;13.720;2022-10-18T02:28:39;99157.41;;;19.25;54.47
34983;BME280;21187;50.976;13.720;2022-10-18T02:34:22;99150.34;;;19.28;54.34
34983;BME280;21187;50.976;13.720;2022-10-18T02:39:28;99165.28;;;19.27;54.32
34983;BME280;21187;50.976;13.720;2022-10-18T02:44:32;99167.59;;;19.25;54.28
34983;BME280;21187;50.976;13.720;2022-10-18T02:49:34;99169.53;;;19.17;54.31
34983;BME280;21187;50.976;13.720;2022-10-18T02:54:36;99163.63;;;19.11;54.44
34983;BME280;21187;50.976;13.720;2022-10-18T02:59:37;99168.69;;;19.06;54.60
34983;BME280;21187;50.976;13.720;2022-10-18T03:04:39;99172.56;;;19.01;54.46
34983;BME280;21187;50.976;13.720;2022-10-18T03:09:41;99169.78;;;18.94;54.33
34983;BME280;21187;50.976;13.720;2022-10-18T03:14:43;99170.50;;;18.87;54.33
34983;BME280;21187;50.976;13.720;2022-10-18T03:19:45;99172.78;;;18.78;54.58
34983;BME280;21187;50.976;13.720;2022-10-18T03:24:47;99182.13;;;18.73;54.46
34983;BME280;21187;50.976;13.720;2022-10-18T03:29:48;99172.72;;;18.71;54.45
34983;BME280;21187;50.976;13.720;2022-10-18T03:34:50;99171.13;;;18.66;54.57
34983;BME280;21187;50.976;13.720;2022-10-18T03:39:52;99174.59;;;18.63;54.62
34983;BME280;21187;50.976;13.720;2022-10-18T03:44:54;99181.25;;;18.62;54.51
34983;BME280;21187;50.976;13.720;2022-10-18T03:49:56;99174.22;;;18.61;54.56
34983;BME280;21187;50.976;13.720;2022-10-18T03:54:58;99174.94;;;18.58;54.77
34983;BME280;21187;50.976;13.720;2022-10-18T04:00:00;99161.22;;;18.58;55.00
34983;BME280;21187;50.976;13.720;2022-10-18T04:05:12;99160.06;;;18.59;55.19
34983;BME280;21187;50.976;13.720;2022-10-18T04:10:15;99157.75;;;18.65;55.38
34983;BME280;21187;50.976;13.720;2022-10-18T04:15:17;99159.38;;;18.69;55.46
34983;BME280;21187;50.976;13.720;2022-10-18T04:20:19;99157.78;;;18.68;55.75
34983;BME280;21187;50.976;13.720;2022-10-18T04:25:21;99164.53;;;18.78;55.63
34983;BME280;21187;50.976;13.720;2022-10-18T04:30:22;99163.00;;;18.84;55.72
34983;BME280;21187;50.976;13.720;2022-10-18T04:35:24;99172.88;;;18.92;55.59
34983;BME280;21187;50.976;13.720;2022-10-18T04:40:28;99169.00;;;18.97;55.38
34983;BME280;21187;50.976;13.720;2022-10-18T04:45:30;99173.34;;;18.98;55.37
34983;BME280;21187;50.976;13.720;2022-10-18T04:50:31;99180.00;;;18.97;55.51
34983;BME280;21187;50.976;13.720;2022-10-18T04:55:34;99177.53;;;18.88;55.83
34983;BME280;21187;50.976;13.720;2022-10-18T05:00:36;99173.28;;;18.91;55.79
34983;BME280;21187;50.976;13.720;2022-10-18T05:05:40;99164.28;;;18.94;55.67
34983;BME280;21187;50.976;13.720;2022-10-18T05:11:02;99158.44;;;18.99;55.72
34983;BME280;21187;50.976;13.720;2022-10-18T05:16:05;99143.94;;;19.02;55.73
34983;BME280;21187;50.976;13.720;2022-10-18T05:21:07;99163.16;;;19.02;55.86
34983;BME280;21187;50.976;13.720;2022-10-18T05:26:09;99162.75;;;19.00;55.71
34983;BME280;21187;50.976;13.720;2022-10-18T05:31:11;99160.00;;;19.00;55.89
34983;BME280;21187;50.976;13.720;2022-10-18T05:36:13;99154.13;;;18.98;55.78
34983;BME280;21187;50.976;13.720;2022-10-18T05:41:14;99149.81;;;19.01;55.65
34983;BME280;21187;50.976;13.720;2022-10-18T05:46:16;99144.72;;;18.99;55.74
34983;BME280;21187;50.976;13.720;2022-10-18T05:51:18;99141.16;;;18.91;55.96
34983;BME280;21187;50.976;13.720;2022-10-18T05:56:20;99141.53;;;18.93;56.09
34983;BME280;21187;50.976;13.720;2022-10-18T06:01:22;99116.50;;;19.02;55.89
34983;BME280;21187;50.976;13.720;2022-10-18T06:06:24;99110.22;;;19.05;55.89
34983;BME280;21187;50.976;13.720;2022-10-18T06:11:25;99118.81;;;19.00;55.91
34983;BME280;21187;50.976;13.720;2022-10-18T06:16:27;99109.84;;;19.03;55.96
34983;BME280;21187;50.976;13.720;2022-10-18T06:21:32;99135.34;;;19.07;56.09
34983;BME280;21187;50.976;13.720;2022-10-18T06:26:34;99126.72;;;19.09;56.05
34983;BME280;21187;50.976;13.720;2022-10-18T06:31:36;99111.47;;;19.19;55.99
34983;BME280;21187;50.976;13.720;2022-10-18T06:36:38;99112.66;;;19.21;56.01
34983;BME280;21187;50.976;13.720;2022-10-18T06:41:40;99122.88;;;19.21;55.88
34983;BME280;21187;50.976;13.720;2022-10-18T06:46:52;99133.41;;;19.11;56.00
34983;BME280;21187;50.976;13.720;2022-10-18T06:51:54;99133.41;;;19.11;56.07
34983;BME280;21187;50.976;13.720;2022-10-18T06:56:56;99129.88;;;19.15;55.98
34983;BME280;21187;50.976;13.720;2022-10-18T07:01:58;99109.91;;;19.21;55.94
34983;BME280;21187;50.976;13.720;2022-10-18T07:07:00;99121.72;;;19.29;55.87
34983;BME280;21187;50.976;13.720;2022-10-18T07:12:02;99111.94;;;19.35;55.73
34983;BME280;21187;50.976;13.720;2022-10-18T07:17:04;99121.00;;;19.39;55.88
34983;BME280;21187;50.976;13.720;2022-10-18T07:22:06;99120.22;;;19.42;55.96
34983;BME280;21187;50.976;13.720;2022-10-18T07:27:08;99134.00;;;19.50;55.98
34983;BME280;21187;50.976;13.720;2022-10-18T07:32:10;99110.84;;;19.51;56.14
34983;BME280;21187;50.976;13.720;2022-10-18T07:37:12;99127.75;;;19.60;56.29
34983;BME280;21187;50.976;13.720;2022-10-18T07:42:13;99132.44;;;19.59;56.59
34983;BME280;21187;50.976;13.720;2022-10-18T07:47:15;99126.59;;;19.68;56.34
34983;BME280;21187;50.976;13.720;2022-10-18T07:52:17;99119.16;;;19.72;56.34
34983;BME280;21187;50.976;13.720;2022-10-18T07:57:19;99109.34;;;19.78;56.42
34983;BME280;21187;50.976;13.720;2022-10-18T08:02:22;99111.38;;;19.89;56.43
34983;BME280;21187;50.976;13.720;2022-10-18T08:07:25;99111.38;;;19.96;56.27
34983;BME280;21187;50.976;13.720;2022-10-18T08:12:27;99123.19;;;20.07;56.35
34983;BME280;21187;50.976;13.720;2022-10-18T08:17:29;99126.72;;;20.11;56.04
34983;BME280;21187;50.976;13.720;2022-10-18T08:22:31;99105.91;;;20.10;55.96
34983;BME280;21187;50.976;13.720;2022-10-18T08:27:33;99101.19;;;20.11;56.05
34983;BME280;21187;50.976;13.720;2022-10-18T08:32:35;99082.31;;;20.09;56.09
34983;BME280;21187;50.976;13.720;2022-10-18T08:37:37;99065.06;;;20.13;56.08
34983;BME280;21187;50.976;13.720;2022-10-18T08:47:46;99051.72;;;20.22;56.15
34983;BME280;21187;50.976;13.720;2022-10-18T08:58:29;99050.91;;;20.25;56.26
34983;BME280;21187;50.976;13.720;2022-10-18T09:04:01;99057.22;;;20.22;56.09
34983;BME280;21187;50.976;13.720;2022-10-18T09:25:36;99032.84;;;20.17;55.89
34983;BME280;21187;50.976;13.720;2022-10-18T09:36:01;99015.53;;;20.16;56.07
34983;BME280;21187;50.976;13.720;2022-10-18T09:41:09;99014.75;;;20.23;55.91
34983;BME280;21187;50.976;13.720;2022-10-18T09:46:16;99013.19;;;20.22;56.11
34983;BME280;21187;50.976;13.720;2022-10-18T09:51:21;99006.09;;;20.28;56.10
34983;BME280;21187;50.976;13.720;2022-10-18T09:56:45;99002.97;;;20.33;56.00
34983;BME280;21187;50.976;13.720;2022-10-18T10:01:48;99006.09;;;20.35;56.07
34983;BME280;21187;50.976;13.720;2022-10-18T10:06:52;98988.81;;;20.38;56.13
34983;BME280;21187;50.976;13.720;2022-10-18T10:11:55;98995.06;;;20.46;55.93
34983;BME280;21187;50.976;13.720;2022-10-18T10:17:00;98997.44;;;20.55;55.92
34983;BME280;21187;50.976;13.720;2022-10-18T10:27:06;98984.78;;;20.83;55.79
34983;BME280;21187;50.976;13.720;2022-10-18T10:32:18;98982.38;;;20.92;55.75
34983;BME280;21187;50.976;13.720;2022-10-18T10:37:24;98983.16;;;20.92;55.70
34983;BME280;21187;50.976;13.720;2022-10-18T10:42:26;98992.59;;;20.95;55.74
34983;BME280;21187;50.976;13.720;2022-10-18T10:47:32;99006.75;;;20.97;55.78
34983;BME280;21187;50.976;13.720;2022-10-18T10:52:36;99062.66;;;20.80;55.83
34983;BME280;21187;50.976;13.720;2022-10-18T10:57:43;99080.78;;;20.44;55.86
34983;BME280;21187;50.976;13.720;2022-10-18T11:02:45;99102.75;;;20.08;56.12
34983;BME280;21187;50.976;13.720;2022-10-18T11:08:08;99085.38;;;19.75;56.51
34983;BME280;21187;50.976;13.720;2022-10-18T11:13:17;99088.88;;;19.58;56.63
34983;BME280;21187;50.976;13.720;2022-10-18T11:18:25;99090.81;;;19.54;56.92
34983;BME280;21187;50.976;13.720;2022-10-18T11:23:31;99088.47;;;19.49;56.81
34983;BME280;21187;50.976;13.720;2022-10-18T11:34:14;99095.13;;;19.44;57.37
34983;BME280;21187;50.976;13.720;2022-10-18T11:50:20;99105.63;;;19.24;58.02
34983;BME280;21187;50.976;13.720;2022-10-18T12:00:55;99115.03;;;19.23;58.28
34983;BME280;21187;50.976;13.720;2022-10-18T12:06:20;99117.41;;;19.28;58.37
34983;BME280;21187;50.976;13.720;2022-10-18T12:11:27;99124.09;;;19.27;57.96
34983;BME280;21187;50.976;13.720;2022-10-18T12:16:36;99120.50;;;19.16;58.42
34983;BME280;21187;50.976;13.720;2022-10-18T12:27:47;99136.56;;;19.14;58.22
34983;BME280;21187;50.976;13.720;2022-10-18T12:33:01;99141.28;;;19.17;58.24
34983;BME280;21187;50.976;13.720;2022-10-18T12:38:29;99143.69;;;19.22;58.22
34983;BME280;21187;50.976;13.720;2022-10-18T12:43:33;99114.66;;;19.24;58.21
34983;BME280;21187;50.976;13.720;2022-10-18T12:48:40;99103.66;;;19.28;58.18
34983;BME280;21187;50.976;13.720;2022-10-18T12:53:45;99115.06;;;19.30;58.10
34983;BME280;21187;50.976;13.720;2022-10-18T12:58:48;99130.00;;;19.33;58.07
34983;BME280;21187;50.976;13.720;2022-10-18T13:03:53;99145.63;;;19.25;58.43
34983;BME280;21187;50.976;13.720;2022-10-18T13:09:19;99157.00;;;19.20;58.51
34983;BME280;21187;50.976;13.720;2022-10-18T13:20:18;99159.72;;;19.20;58.61
34983;BME280;21187;50.976;13.720;2022-10-18T13:58:22;99142.53;;;19.30;58.50
34983;BME280;21187;50.976;13.720;2022-10-18T14:09:10;99136.28;;;19.37;58.51
34983;BME280;21187;50.976;13.720;2022-10-18T14:14:31;99132.41;;;19.41;58.57
34983;BME280;21187;50.976;13.720;2022-10-18T14:19:40;99136.16;;;19.11;59.47
34983;BME280;21187;50.976;13.720;2022-10-18T14:24:46;99116.63;;;19.27;59.31
34983;BME280;21187;50.976;13.720;2022-10-18T14:30:05;99127.47;;;19.02;60.31
34983;BME280;21187;50.976;13.720;2022-10-18T14:35:22;99126.75;;;19.12;60.15
34983;BME280;21187;50.976;13.720;2022-10-18T14:40:34;99142.00;;;19.06;60.42
34983;BME280;21187;50.976;13.720;2022-10-18T14:45:39;99150.22;;;19.03;60.47
34983;BME280;21187;50.976;13.720;2022-10-18T14:50:43;99166.03;;;19.24;59.74
34983;BME280;21187;50.976;13.720;2022-10-18T14:55:58;99168.50;;;19.43;58.76
34983;BME280;21187;50.976;13.720;2022-10-18T15:01:05;99182.94;;;19.29;59.10
34983;BME280;21187;50.976;13.720;2022-10-18T15:06:06;99170.78;;;19.31;58.88
34983;BME280;21187;50.976;13.720;2022-10-18T15:11:10;99166.84;;;19.32;58.82
34983;BME280;21187;50.976;13.720;2022-10-18T15:16:19;99162.53;;;19.31;58.90
34983;BME280;21187;50.976;13.720;2022-10-18T15:21:23;99164.09;;;19.28;58.90
34983;BME280;21187;50.976;13.720;2022-10-18T15:26:27;99160.28;;;18.88;60.18
34983;BME280;21187;50.976;13.720;2022-10-18T15:31:32;99161.00;;;18.77;60.65
34983;BME280;21187;50.976;13.720;2022-10-18T15:36:36;99161.69;;;18.63;61.09
34983;BME280;21187;50.976;13.720;2022-10-18T15:41:48;99164.78;;;18.62;61.18
34983;BME280;21187;50.976;13.720;2022-10-18T15:46:54;99169.50;;;18.61;61.15
34983;BME280;21187;50.976;13.720;2022-10-18T15:57:08;99181.97;;;18.52;61.38
34983;BME280;21187;50.976;13.720;2022-10-18T16:02:12;99182.75;;;18.52;61.25
34983;BME280;21187;50.976;13.720;2022-10-18T16:07:15;99198.44;;;18.52;61.14
34983;BME280;21187;50.976;13.720;2022-10-18T16:12:16;99199.06;;;18.38;61.41
34983;BME280;21187;50.976;13.720;2022-10-18T16:17:18;99204.94;;;18.36;61.50
34983;BME280;21187;50.976;13.720;2022-10-18T16:22:20;99210.00;;;18.34;61.38
34983;BME280;21187;50.976;13.720;2022-10-18T16:27:22;99220.91;;;18.27;61.65
34983;BME280;21187;50.976;13.720;2022-10-18T16:32:25;99216.81;;;18.10;61.99
34983;BME280;21187;50.976;13.720;2022-10-18T16:37:27;99231.50;;;17.94;62.33
34983;BME280;21187;50.976;13.720;2022-10-18T16:42:29;99234.66;;;17.96;62.14
34983;BME280;21187;50.976;13.720;2022-10-18T16:47:31;99233.00;;;17.92;62.39
34983;BME280;21187;50.976;13.720;2022-10-18T16:52:34;99229.25;;;18.00;62.10
34983;BME280;21187;50.976;13.720;2022-10-18T16:57:36;99232.44;;;18.06;61.84
34983;BME280;21187;50.976;13.720;2022-10-18T17:02:38;99237.47;;;18.04;61.79
34983;BME280;21187;50.976;13.720;2022-10-18T17:07:40;99233.91;;;18.00;61.75
34983;BME280;21187;50.976;13.720;2022-10-18T17:12:42;99233.69;;;17.82;62.00
34983;BME280;21187;50.976;13.720;2022-10-18T17:17:44;99236.38;;;17.78;62.29
34983;BME280;21187;50.976;13.720;2022-10-18T17:22:48;99236.50;;;17.89;61.98
34983;BME280;21187;50.976;13.720;2022-10-18T17:27:50;99251.84;;;17.93;61.87
34983;BME280;21187;50.976;13.720;2022-10-18T17:32:51;99251.06;;;17.93;61.60
34983;BME280;21187;50.976;13.720;2022-10-18T17:37:55;99248.63;;;17.88;61.76
34983;BME280;21187;50.976;13.720;2022-10-18T17:42:57;99239.25;;;17.89;61.64
34983;BME280;21187;50.976;13.720;2022-10-18T17:48:00;99235.66;;;17.85;61.72
34983;BME280;21187;50.976;13.720;2022-10-18T17:53:02;99237.38;;;17.66;62.17
34983;BME280;21187;50.976;13.720;2022-10-18T17:58:04;99235.59;;;17.51;62.20
34983;BME280;21187;50.976;13.720;2022-10-18T18:03:06;99241.56;;;17.29;62.71
34983;BME280;21187;50.976;13.720;2022-10-18T18:08:08;99243.94;;;17.31;62.66
34983;BME280;21187;50.976;13.720;2022-10-18T18:13:09;99246.25;;;17.29;62.43
34983;BME280;21187;50.976;13.720;2022-10-18T18:18:16;99247.78;;;17.26;62.40
34983;BME280;21187;50.976;13.720;2022-10-18T18:23:19;99252.91;;;17.28;62.46
34983;BME280;21187;50.976;13.720;2022-10-18T18:28:21;99245.31;;;17.18;62.93
34983;BME280;21187;50.976;13.720;2022-10-18T18:33:23;99252.13;;;17.04;63.41
34983;BME280;21187;50.976;13.720;2022-10-18T18:38:25;99246.75;;;17.11;63.40
34983;BME280;21187;50.976;13.720;2022-10-18T18:43:27;99249.31;;;17.24;63.04
34983;BME280;21187;50.976;13.720;2022-10-18T18:48:31;99243.53;;;17.29;62.91
34983;BME280;21187;50.976;13.720;2022-10-18T18:53:33;99250.16;;;17.28;62.92
34983;BME280;21187;50.976;13.720;2022-10-18T18:58:36;99248.69;;;17.34;62.68
34983;BME280;21187;50.976;13.720;2022-10-18T19:03:39;99239.28;;;17.35;62.73
34983;BME280;21187;50.976;13.720;2022-10-18T19:08:42;99235.16;;;17.75;61.32
34983;BME280;21187;50.976;13.720;2022-10-18T19:13:47;99237.66;;;17.88;60.89
34983;BME280;21187;50.976;13.720;2022-10-18T19:19:03;99248.75;;;17.95;60.59
34983;BME280;21187;50.976;13.720;2022-10-18T19:24:06;99247.53;;;17.92;60.70
34983;BME280;21187;50.976;13.720;2022-10-18T19:29:11;99250.31;;;17.96;60.59
34983;BME280;21187;50.976;13.720;2022-10-18T19:34:15;99256.66;;;18.00;60.42
34983;BME280;21187;50.976;13.720;2022-10-18T19:39:20;99261.56;;;17.60;61.62
34983;BME280;21187;50.976;13.720;2022-10-18T19:44:24;99261.72;;;17.44;62.14
34983;BME280;21187;50.976;13.720;2022-10-18T19:49:26;99259.66;;;17.34;62.08
34983;BME280;21187;50.976;13.720;2022-10-18T19:54:29;99267.44;;;17.32;62.18
34983;BME280;21187;50.976;13.720;2022-10-18T19:59:31;99273.66;;;17.29;62.21
34983;BME280;21187;50.976;13.720;2022-10-18T20:04:33;99267.38;;;17.28;61.96
34983;BME280;21187;50.976;13.720;2022-10-18T20:09:35;99283.75;;;17.25;61.86
34983;BME280;21187;50.976;13.720;2022-10-18T20:14:37;99283.63;;;17.18;61.82
34983;BME280;21187;50.976;13.720;2022-10-18T20:19:39;99277.19;;;17.06;61.96
34983;BME280;21187;50.976;13.720;2022-10-18T20:24:41;99273.19;;;17.00;62.01
34983;BME280;21187;50.976;13.720;2022-10-18T20:29:42;99267.88;;;17.38;60.57
34983;BME280;21187;50.976;13.720;2022-10-18T20:34:44;99261.72;;;17.44;60.21
34983;BME280;21187;50.976;13.720;2022-10-18T20:39:46;99269.94;;;17.44;59.87
34983;BME280;21187;50.976;13.720;2022-10-18T20:44:48;99274.88;;;17.35;60.05
34983;BME280;21187;50.976;13.720;2022-10-18T20:49:50;99269.00;;;17.33;59.85
34983;BME280;21187;50.976;13.720;2022-10-18T20:54:52;99261.09;;;17.28;59.86
34983;BME280;21187;50.976;13.720;2022-10-18T20:59:54;99264.16;;;17.23;59.96
34983;BME280;21187;50.976;13.720;2022-10-18T21:04:55;99282.03;;;17.17;60.15
34983;BME280;21187;50.976;13.720;2022-10-18T21:09:57;99268.56;;;17.04;60.50
34983;BME280;21187;50.976;13.720;2022-10-18T21:14:59;99272.56;;;17.10;60.30
34983;BME280;21187;50.976;13.720;2022-10-18T21:20:01;99269.88;;;17.14;60.03
34983;BME280;21187;50.976;13.720;2022-10-18T21:25:03;99263.19;;;17.11;60.06
34983;BME280;21187;50.976;13.720;2022-10-18T21:30:06;99264.84;;;17.16;60.03
34983;BME280;21187;50.976;13.720;2022-10-18T21:35:08;99252.75;;;17.17;60.03
34983;BME280;21187;50.976;13.720;2022-10-18T21:40:10;99267.50;;;17.12;60.43
34983;BME280;21187;50.976;13.720;2022-10-18T21:45:12;99267.19;;;17.18;60.36
34983;BME280;21187;50.976;13.720;2022-10-18T21:50:15;99268.56;;;17.04;60.97
34983;BME280;21187;50.976;13.720;2022-10-18T21:55:17;99265.44;;;17.06;61.07
34983;BME280;21187;50.976;13.720;2022-10-18T22:00:19;99272.56;;;17.10;61.05
34983;BME280;21187;50.976;13.720;2022-10-18T22:05:21;99277.00;;;17.19;61.15
34983;BME280;21187;50.976;13.720;2022-10-18T22:10:23;99276.78;;;17.31;60.86
34983;BME280;21187;50.976;13.720;2022-10-18T22:15:25;99271.81;;;17.37;60.92
34983;BME280;21187;50.976;13.720;2022-10-18T22:20:27;99257.22;;;17.29;61.28
34983;BME280;21187;50.976;13.720;2022-10-18T22:25:29;99243.09;;;17.27;61.45
34983;BME280;21187;50.976;13.720;2022-10-18T22:30:35;99242.47;;;17.37;61.36
34983;BME280;21187;50.976;13.720;2022-10-18T22:35:37;99257.44;;;17.43;61.15
34983;BME280;21187;50.976;13.720;2022-10-18T22:40:38;99260.56;;;17.45;61.24
34983;BME280;21187;50.976;13.720;2022-10-18T22:45:40;99262.91;;;17.43;61.31
34983;BME280;21187;50.976;13.720;2022-10-18T22:50:42;99259.31;;;17.39;61.37
34983;BME280;21187;50.976;13.720;2022-10-18T22:55:46;99251.09;;;17.39;61.44
34983;BME280;21187;50.976;13.720;2022-10-18T23:00:49;99249.00;;;17.29;61.61
34983;BME280;21187;50.976;13.720;2022-10-18T23:05:51;99242.72;;;17.28;61.46
34983;BME280;21187;50.976;13.720;2022-10-18T23:10:54;99250.16;;;17.28;61.22
34983;BME280;21187;50.976;13.720;2022-10-18T23:16:01;99247.78;;;17.26;61.24
34983;BME280;21187;50.976;13.720;2022-10-18T23:21:10;99252.25;;;17.11;61.17
34983;BME280;21187;50.976;13.720;2022-10-18T23:26:14;99249.78;;;17.03;61.59
34983;BME280;21187;50.976;13.720;2022-10-18T23:31:20;99250.56;;;17.03;61.15
34983;BME280;21187;50.976;13.720;2022-10-18T23:36:23;99254.16;;;16.88;61.18
34983;BME280;21187;50.976;13.720;2022-10-18T23:41:25;99257.38;;;16.90;61.19
34983;BME280;21187;50.976;13.720;2022-10-18T23:46:27;99253.91;;;16.93;60.83
34983;BME280;21187;50.976;13.720;2022-10-18T23:51:29;99254.28;;;16.91;60.70
34983;BME280;21187;50.976;13.720;2022-10-18T23:56:31;99258.09;;;16.87;60.91
